createdAt,value
2023-08-22T00:04:01.709Z,54.44
2023-08-22T00:09:04.715Z,54.41
2023-08-22T00:14:07.046Z,54.62
2023-08-22T00:19:08.823Z,54.37
2023-08-22T00:24:10.224Z,55.19
2023-08-22T00:29:11.595Z,54.57
2023-08-22T00:34:12.976Z,54.58
2023-08-22T00:39:14.339Z,54.70
2023-08-22T00:44:15.775Z,54.32
2023-08-22T00:49:17.293Z,54.34
2023-08-22T00:54:19.639Z,54.53
2023-08-22T00:59:21.132Z,54.18
2023-08-22T01:04:22.778Z,53.50
2023-08-22T01:10:02.937Z,53.93
2023-08-22T01:15:13.608Z,53.91
2023-08-22T01:20:15.540Z,52.07
2023-08-22T01:25:17.172Z,52.84
2023-08-22T01:30:31.502Z,51.82
2023-08-22T01:35:33.154Z,51.97
2023-08-22T01:40:34.686Z,51.50
2023-08-22T01:45:36.219Z,50.99
2023-08-22T01:50:37.731Z,47.72
2023-08-22T01:55:39.242Z,49.62
2023-08-22T02:00:40.798Z,49.49
2023-08-22T02:05:42.791Z,49.81
2023-08-22T02:10:44.295Z,50.67
2023-08-22T02:15:45.852Z,50.53
2023-08-22T02:20:50.787Z,50.75
2023-08-22T02:25:52.311Z,50.61
2023-08-22T02:30:57.399Z,50.86
2023-08-22T02:35:59.005Z,51.06
2023-08-22T02:41:00.707Z,51.35
2023-08-22T02:46:02.291Z,51.61
2023-08-22T02:51:05.394Z,51.82
2023-08-22T02:56:07.427Z,52.49
2023-08-22T03:01:09.092Z,52.91
2023-08-22T03:06:10.640Z,52.29
2023-08-22T03:11:12.227Z,52.25
2023-08-22T03:16:13.822Z,52.05
2023-08-22T03:21:15.610Z,52.30
2023-08-22T03:26:17.161Z,52.59
2023-08-22T03:31:18.783Z,52.85
2023-08-22T03:36:21.031Z,52.83
2023-08-22T03:41:22.544Z,52.42
2023-08-22T03:46:37.227Z,51.78
2023-08-22T03:51:40.677Z,52.18
2023-08-22T03:56:42.283Z,52.67
2023-08-22T04:01:43.809Z,52.19
2023-08-22T04:06:45.378Z,51.99
2023-08-22T04:11:46.893Z,52.09
2023-08-22T04:16:48.456Z,52.03
2023-08-22T04:21:50.034Z,52.27
2023-08-22T04:26:52.740Z,52.10
2023-08-22T04:31:54.853Z,52.45
2023-08-22T04:36:56.393Z,51.84
2023-08-22T04:41:57.903Z,51.71
2023-08-22T04:46:59.404Z,50.83
2023-08-22T04:52:00.921Z,51.66
2023-08-22T04:57:02.433Z,51.51
2023-08-22T05:02:04.020Z,51.23
2023-08-22T05:07:05.628Z,50.45
2023-08-22T05:12:07.402Z,51.27
2023-08-22T05:17:08.986Z,50.62
2023-08-22T05:22:11.014Z,50.64
2023-08-22T05:27:12.412Z,50.90
2023-08-22T05:32:13.914Z,51.04
2023-08-22T05:37:15.432Z,51.14
2023-08-22T05:42:16.939Z,51.05
2023-08-22T05:47:18.476Z,50.90
2023-08-22T05:52:20.481Z,50.73
2023-08-22T05:57:23.826Z,51.27
2023-08-22T06:02:25.349Z,51.47
2023-08-22T06:07:27.254Z,51.05
2023-08-22T06:12:28.629Z,51.09
2023-08-22T06:17:30.063Z,50.83
2023-08-22T06:22:31.496Z,50.15
2023-08-22T06:27:33.166Z,50.63
2023-08-22T06:32:34.736Z,50.32
2023-08-22T06:37:36.393Z,50.30
2023-08-22T06:42:37.930Z,50.07
2023-08-22T06:47:40.163Z,49.94
2023-08-22T06:52:41.990Z,50.30
2023-08-22T06:57:43.557Z,49.62
2023-08-22T07:02:46.102Z,49.57
2023-08-22T07:07:47.647Z,48.82
2023-08-22T07:12:49.331Z,48.46
2023-08-22T07:17:51.060Z,48.41
2023-08-22T07:22:52.599Z,48.08
2023-08-22T07:27:54.173Z,47.68
2023-08-22T07:32:55.772Z,48.48
2023-08-22T07:37:57.308Z,48.06
2023-08-22T07:43:00.181Z,47.84
2023-08-22T07:48:01.959Z,47.99
2023-08-22T07:53:05.697Z,48.94
2023-08-22T07:58:07.286Z,49.28
2023-08-22T08:03:08.731Z,49.13
2023-08-22T08:08:10.292Z,49.34
2023-08-22T08:13:11.928Z,49.24
2023-08-22T08:18:14.630Z,49.20
2023-08-22T08:23:16.167Z,48.57
2023-08-22T08:28:17.710Z,48.91
2023-08-22T08:33:19.097Z,49.13
2023-08-22T08:38:20.930Z,48.54
2023-08-22T08:43:22.885Z,49.70
2023-08-22T08:48:24.406Z,49.08
2023-08-22T08:53:26.281Z,48.86
2023-08-22T08:58:28.271Z,48.92
2023-08-22T09:03:30.255Z,48.83
2023-08-22T09:08:31.843Z,49.04
2023-08-22T09:13:54.175Z,48.48
2023-08-22T09:19:00.197Z,47.85
2023-08-22T09:24:10.806Z,48.68
2023-08-22T09:29:12.788Z,48.84
2023-08-22T09:34:15.775Z,48.79
2023-08-22T09:39:17.679Z,49.14
2023-08-22T09:44:20.846Z,47.93
2023-08-22T09:49:22.596Z,48.68
2023-08-22T09:54:24.160Z,46.34
2023-08-22T09:59:25.721Z,46.00
2023-08-22T10:04:27.169Z,45.70
2023-08-22T10:09:28.773Z,46.11
2023-08-22T10:14:30.980Z,45.56
2023-08-22T10:19:32.522Z,46.92
2023-08-22T10:24:34.269Z,48.09
2023-08-22T10:29:46.281Z,47.22
2023-08-22T10:34:47.952Z,49.79
2023-08-22T10:39:49.902Z,46.57
2023-08-22T10:44:56.997Z,47.32
2023-08-22T10:50:14.992Z,45.91
2023-08-22T10:55:18.469Z,45.51
2023-08-22T11:00:22.956Z,45.91
2023-08-22T11:05:24.685Z,44.17
2023-08-22T11:10:26.406Z,44.14
2023-08-22T11:15:28.056Z,42.54
2023-08-22T11:20:29.553Z,43.20
2023-08-22T11:25:31.068Z,42.71
2023-08-22T11:30:32.605Z,41.96
2023-08-22T11:35:34.106Z,42.23
2023-08-22T11:40:35.605Z,42.92
2023-08-22T11:45:49.674Z,43.38
2023-08-22T11:50:51.186Z,44.10
2023-08-22T11:55:56.571Z,42.33
2023-08-22T12:00:58.237Z,41.01
2023-08-22T12:05:59.756Z,41.72
2023-08-22T12:11:02.455Z,42.33
2023-08-22T12:16:04.049Z,41.27
2023-08-22T12:21:05.604Z,41.30
2023-08-22T12:26:07.120Z,39.98
2023-08-22T12:31:08.790Z,38.97
2023-08-22T12:36:10.375Z,39.28
2023-08-22T12:41:12.995Z,38.34
2023-08-22T12:46:14.551Z,38.03
2023-08-22T12:51:16.099Z,41.22
2023-08-22T12:56:17.909Z,40.10
2023-08-22T13:01:19.454Z,41.13
2023-08-22T13:06:20.991Z,40.05
2023-08-22T13:11:22.509Z,39.69
2023-08-22T13:16:24.058Z,39.32
2023-08-22T13:21:25.611Z,39.28
2023-08-22T13:26:27.216Z,39.63
2023-08-22T13:31:28.827Z,40.49
2023-08-22T13:36:31.398Z,40.62
2023-08-22T13:41:32.895Z,40.58
2023-08-22T13:46:34.463Z,40.55
2023-08-22T13:51:36.080Z,40.97
2023-08-22T13:56:37.592Z,42.88
2023-08-22T14:01:39.216Z,42.27
2023-08-22T14:06:40.797Z,42.43
2023-08-22T14:11:42.306Z,41.99
2023-08-22T14:16:43.814Z,42.82
2023-08-22T14:21:48.501Z,43.46
2023-08-22T14:26:50.462Z,42.45
2023-08-22T14:31:52.039Z,43.94
2023-08-22T14:36:53.572Z,44.30
2023-08-22T14:41:55.090Z,44.92
2023-08-22T14:46:56.644Z,43.79
2023-08-22T14:51:58.540Z,44.31
2023-08-22T14:57:00.055Z,44.40
2023-08-22T15:02:01.572Z,44.35
2023-08-22T15:07:03.544Z,43.87
2023-08-22T15:12:06.477Z,44.23
2023-08-22T15:17:08.077Z,43.52
2023-08-22T15:22:09.610Z,44.06
2023-08-22T15:27:12.360Z,44.34
2023-08-22T15:32:13.999Z,45.81
2023-08-22T15:37:15.515Z,45.13
2023-08-22T15:42:17.442Z,44.86
2023-08-22T15:47:18.980Z,46.13
2023-08-22T15:52:31.050Z,46.09
2023-08-22T15:57:40.792Z,45.64
2023-08-22T16:02:42.330Z,47.36
2023-08-22T16:07:44.231Z,47.07
2023-08-22T16:12:45.979Z,47.59
2023-08-22T16:17:47.765Z,47.61
2023-08-22T16:22:49.475Z,49.28
2023-08-22T16:27:51.377Z,48.59
2023-08-22T16:32:53.183Z,49.43
2023-08-22T16:37:54.737Z,49.15
2023-08-22T16:42:56.244Z,50.40
2023-08-22T16:47:57.836Z,49.00
2023-08-22T16:52:59.479Z,49.29
2023-08-22T16:58:01.128Z,49.53
2023-08-22T17:03:02.962Z,50.19
2023-08-22T17:08:04.711Z,49.26
2023-08-22T17:13:06.216Z,50.22
2023-08-22T17:18:08.133Z,50.51
2023-08-22T17:23:09.762Z,50.16
2023-08-22T17:28:11.302Z,50.43
2023-08-22T17:33:12.730Z,51.13
2023-08-22T17:38:14.771Z,51.95
2023-08-22T17:43:16.395Z,52.54
2023-08-22T17:48:17.946Z,52.35
2023-08-22T17:53:20.795Z,52.38
2023-08-22T17:58:22.415Z,52.50
2023-08-22T18:03:24.029Z,53.37
2023-08-22T18:08:25.735Z,54.16
2023-08-22T18:13:27.224Z,54.42
2023-08-22T18:18:29.449Z,53.83
2023-08-22T18:23:31.358Z,54.49
2023-08-22T18:28:33.511Z,55.00
2023-08-22T18:33:35.466Z,55.69
2023-08-22T18:38:36.969Z,55.09
2023-08-22T18:43:38.485Z,55.37
2023-08-22T18:48:41.022Z,55.46
2023-08-22T18:53:42.588Z,55.76
2023-08-22T18:58:44.128Z,55.73
2023-08-22T19:03:45.691Z,55.74
2023-08-22T19:08:47.280Z,55.96
2023-08-22T19:13:49.632Z,56.67
2023-08-22T19:18:51.165Z,55.93
2023-08-22T19:23:52.709Z,55.39
2023-08-22T19:28:54.234Z,55.11
2023-08-22T19:33:55.893Z,55.48
2023-08-22T19:38:57.475Z,55.04
2023-08-22T19:43:59.005Z,54.98
2023-08-22T19:49:00.682Z,56.26
2023-08-22T19:54:02.337Z,56.41
2023-08-22T19:59:03.841Z,55.27
2023-08-22T20:04:05.369Z,55.04
2023-08-22T20:09:13.727Z,53.80
2023-08-22T20:14:15.322Z,53.37
2023-08-22T20:19:17.835Z,53.92
2023-08-22T20:24:19.384Z,54.48
2023-08-22T20:29:20.884Z,54.36
2023-08-22T20:34:22.414Z,54.21
2023-08-22T20:39:28.214Z,53.49
2023-08-22T20:44:29.716Z,52.94
2023-08-22T20:49:31.258Z,54.02
2023-08-22T20:54:33.644Z,54.47
2023-08-22T20:59:35.151Z,54.16
2023-08-22T21:04:36.658Z,53.82
2023-08-22T21:09:38.274Z,54.54
2023-08-22T21:14:39.833Z,54.35
2023-08-22T21:19:41.341Z,54.85
2023-08-22T21:24:43.737Z,54.11
2023-08-22T21:29:45.471Z,54.10
2023-08-22T21:34:47.416Z,53.91
2023-08-22T21:39:49.350Z,54.63
2023-08-22T21:44:50.857Z,54.47
2023-08-22T21:49:55.569Z,54.79
2023-08-22T21:54:57.089Z,54.68
2023-08-22T21:59:58.598Z,54.61
2023-08-22T22:05:00.118Z,54.88
2023-08-22T22:10:01.677Z,54.58
2023-08-22T22:15:04.010Z,54.97
2023-08-22T22:20:06.001Z,54.58
2023-08-22T22:25:07.952Z,54.43
2023-08-22T22:30:09.739Z,53.74
2023-08-22T22:35:11.314Z,54.09
2023-08-22T22:40:12.833Z,53.49
2023-08-22T22:45:14.353Z,53.19
2023-08-22T22:50:15.906Z,53.12
2023-08-22T22:55:17.465Z,53.62
2023-08-22T23:00:18.998Z,53.28
2023-08-22T23:05:23.526Z,53.72
2023-08-22T23:10:25.103Z,54.66
2023-08-22T23:15:27.620Z,54.19
2023-08-22T23:20:29.155Z,53.81
2023-08-22T23:25:30.660Z,54.15
2023-08-22T23:30:32.648Z,54.54
2023-08-22T23:35:34.190Z,53.58
2023-08-22T23:40:35.979Z,53.98
2023-08-22T23:45:37.629Z,53.97
2023-08-22T23:50:39.138Z,53.62
2023-08-22T23:55:40.690Z,54.38
